<?xml version="1.0" encoding="UTF-8" standalone="no" ?>
<gpx xmlns="http://www.topografix.com/GPX/1/1" xmlns:xsi="http://www.w3.org/2001/XMLSchema-instance" xsi:schemaLocation="http://www.topografix.com/GPX/1/1 http://www.topografix.com/GPX/1/1/gpx.xsd" version="1.1" creator="VisuGPX - https://www.visugpx.com">
  <metadata>
    <name>6848452-LA JURIE</name>
    <desc><![CDATA[Circuit non balisé à faire avec la carte en main ou GPS, aucune difficulté.]]></desc>
  </metadata>
  <trk>
    <name><![CDATA[6848452-LA JURIE]]></name>
    <trkseg>
      <trkpt lat="46.04902" lon="3.70991">
        <ele>517</ele>
        <time>2020-01-02T08:16:12Z</time>
      </trkpt>
      <trkpt lat="46.04812" lon="3.71098">
        <ele>523</ele>
        <time>2020-01-02T08:18:48Z</time>
      </trkpt>
      <trkpt lat="46.04741" lon="3.71115">
        <ele>529</ele>
        <time>2020-01-02T08:20:24Z</time>
      </trkpt>
      <trkpt lat="46.04723" lon="3.71127">
        <ele>530</ele>
        <time>2020-01-02T08:20:50Z</time>
      </trkpt>
      <trkpt lat="46.04712" lon="3.71136">
        <ele>530</ele>
        <time>2020-01-02T08:21:07Z</time>
      </trkpt>
      <trkpt lat="46.04693" lon="3.71145">
        <ele>531</ele>
        <time>2020-01-02T08:21:34Z</time>
      </trkpt>
      <trkpt lat="46.04664" lon="3.71188">
        <ele>533</ele>
        <time>2020-01-02T08:22:29Z</time>
      </trkpt>
      <trkpt lat="46.04637" lon="3.71183">
        <ele>539</ele>
        <time>2020-01-02T08:23:06Z</time>
      </trkpt>
      <trkpt lat="46.04621" lon="3.71231">
        <ele>541</ele>
        <time>2020-01-02T08:23:55Z</time>
      </trkpt>
      <trkpt lat="46.04538" lon="3.71222">
        <ele>555</ele>
        <time>2020-01-02T08:25:46Z</time>
      </trkpt>
      <trkpt lat="46.0447" lon="3.71223">
        <ele>564</ele>
        <time>2020-01-02T08:27:17Z</time>
      </trkpt>
      <trkpt lat="46.0441" lon="3.71257">
        <ele>571</ele>
        <time>2020-01-02T08:28:43Z</time>
      </trkpt>
      <trkpt lat="46.04375" lon="3.71291">
        <ele>573</ele>
        <time>2020-01-02T08:29:39Z</time>
      </trkpt>
      <trkpt lat="46.043" lon="3.7127">
        <ele>580</ele>
        <time>2020-01-02T08:31:21Z</time>
      </trkpt>
      <trkpt lat="46.04254" lon="3.7141">
        <ele>573</ele>
        <time>2020-01-02T08:33:45Z</time>
      </trkpt>
      <trkpt lat="46.04169" lon="3.71584">
        <ele>556</ele>
        <time>2020-01-02T08:37:02Z</time>
      </trkpt>
      <trkpt lat="46.04075" lon="3.71646">
        <ele>569</ele>
        <time>2020-01-02T08:39:20Z</time>
      </trkpt>
      <trkpt lat="46.04057" lon="3.71706">
        <ele>573</ele>
        <time>2020-01-02T08:40:20Z</time>
      </trkpt>
      <trkpt lat="46.04014" lon="3.71768">
        <ele>582</ele>
        <time>2020-01-02T08:41:41Z</time>
      </trkpt>
      <trkpt lat="46.03899" lon="3.71947">
        <ele>593</ele>
        <time>2020-01-02T08:45:27Z</time>
      </trkpt>
      <trkpt lat="46.03736" lon="3.72019">
        <ele>588</ele>
        <time>2020-01-02T08:49:15Z</time>
      </trkpt>
      <trkpt lat="46.03608" lon="3.72019">
        <ele>585</ele>
        <time>2020-01-02T08:52:06Z</time>
      </trkpt>
      <trkpt lat="46.03475" lon="3.72147">
        <ele>582</ele>
        <time>2020-01-02T08:55:39Z</time>
      </trkpt>
      <trkpt lat="46.03356" lon="3.72353">
        <ele>582</ele>
        <time>2020-01-02T08:59:47Z</time>
      </trkpt>
      <trkpt lat="46.0332" lon="3.72405">
        <ele>578</ele>
        <time>2020-01-02T09:00:55Z</time>
      </trkpt>
      <trkpt lat="46.03287" lon="3.72645">
        <ele>557</ele>
        <time>2020-01-02T09:04:42Z</time>
      </trkpt>
      <trkpt lat="46.03228" lon="3.72684">
        <ele>548</ele>
        <time>2020-01-02T09:06:09Z</time>
      </trkpt>
      <trkpt lat="46.03126" lon="3.72675">
        <ele>540</ele>
        <time>2020-01-02T09:08:25Z</time>
      </trkpt>
      <trkpt lat="46.03117" lon="3.72761">
        <ele>539</ele>
        <time>2020-01-02T09:09:46Z</time>
      </trkpt>
      <trkpt lat="46.03165" lon="3.7286">
        <ele>543</ele>
        <time>2020-01-02T09:11:38Z</time>
      </trkpt>
      <trkpt lat="46.03135" lon="3.72928">
        <ele>559</ele>
        <time>2020-01-02T09:12:52Z</time>
      </trkpt>
      <trkpt lat="46.03079" lon="3.72838">
        <ele>556</ele>
        <time>2020-01-02T09:14:44Z</time>
      </trkpt>
      <trkpt lat="46.02983" lon="3.72769">
        <ele>554</ele>
        <time>2020-01-02T09:17:07Z</time>
      </trkpt>
      <trkpt lat="46.02936" lon="3.7283">
        <ele>563</ele>
        <time>2020-01-02T09:18:32Z</time>
      </trkpt>
      <trkpt lat="46.02828" lon="3.72911">
        <ele>589</ele>
        <time>2020-01-02T09:21:14Z</time>
      </trkpt>
      <trkpt lat="46.02733" lon="3.7307">
        <ele>596</ele>
        <time>2020-01-02T09:24:29Z</time>
      </trkpt>
      <trkpt lat="46.0262" lon="3.73061">
        <ele>605</ele>
        <time>2020-01-02T09:27:00Z</time>
      </trkpt>
      <trkpt lat="46.02524" lon="3.7304">
        <ele>604</ele>
        <time>2020-01-02T09:29:09Z</time>
      </trkpt>
      <trkpt lat="46.02486" lon="3.72885">
        <ele>611</ele>
        <time>2020-01-02T09:31:41Z</time>
      </trkpt>
      <trkpt lat="46.02319" lon="3.72821">
        <ele>617</ele>
        <time>2020-01-02T09:35:32Z</time>
      </trkpt>
      <trkpt lat="46.02235" lon="3.72898">
        <ele>614</ele>
        <time>2020-01-02T09:37:45Z</time>
      </trkpt>
      <trkpt lat="46.02155" lon="3.72915">
        <ele>611</ele>
        <time>2020-01-02T09:39:33Z</time>
      </trkpt>
      <trkpt lat="46.02072" lon="3.72765">
        <ele>619</ele>
        <time>2020-01-02T09:42:31Z</time>
      </trkpt>
      <trkpt lat="46.02" lon="3.72581">
        <ele>624</ele>
        <time>2020-01-02T09:45:46Z</time>
      </trkpt>
      <trkpt lat="46.02021" lon="3.72379">
        <ele>639</ele>
        <time>2020-01-02T09:48:56Z</time>
      </trkpt>
      <trkpt lat="46.0211" lon="3.72405">
        <ele>644</ele>
        <time>2020-01-02T09:50:57Z</time>
      </trkpt>
      <trkpt lat="46.02104" lon="3.72113">
        <ele>667</ele>
        <time>2020-01-02T09:55:27Z</time>
      </trkpt>
      <trkpt lat="46.02191" lon="3.71984">
        <ele>665</ele>
        <time>2020-01-02T09:58:14Z</time>
      </trkpt>
      <trkpt lat="46.02152" lon="3.7186">
        <ele>655</ele>
        <time>2020-01-02T10:00:20Z</time>
      </trkpt>
      <trkpt lat="46.02161" lon="3.71671">
        <ele>645</ele>
        <time>2020-01-02T10:03:16Z</time>
      </trkpt>
      <trkpt lat="46.02265" lon="3.71568">
        <ele>628</ele>
        <time>2020-01-02T10:06:04Z</time>
      </trkpt>
      <trkpt lat="46.02328" lon="3.71473">
        <ele>624</ele>
        <time>2020-01-02T10:08:06Z</time>
      </trkpt>
      <trkpt lat="46.02438" lon="3.71495">
        <ele>609</ele>
        <time>2020-01-02T10:10:34Z</time>
      </trkpt>
      <trkpt lat="46.02563" lon="3.71435">
        <ele>603</ele>
        <time>2020-01-02T10:13:30Z</time>
      </trkpt>
      <trkpt lat="46.0265" lon="3.71503">
        <ele>597</ele>
        <time>2020-01-02T10:15:42Z</time>
      </trkpt>
      <trkpt lat="46.02799" lon="3.71409">
        <ele>584</ele>
        <time>2020-01-02T10:19:19Z</time>
      </trkpt>
      <trkpt lat="46.02873" lon="3.7137">
        <ele>580</ele>
        <time>2020-01-02T10:21:04Z</time>
      </trkpt>
      <trkpt lat="46.02915" lon="3.71512">
        <ele>573</ele>
        <time>2020-01-02T10:23:27Z</time>
      </trkpt>
      <trkpt lat="46.0296" lon="3.7143">
        <ele>575</ele>
        <time>2020-01-02T10:25:04Z</time>
      </trkpt>
      <trkpt lat="46.02998" lon="3.71521">
        <ele>570</ele>
        <time>2020-01-02T10:26:43Z</time>
      </trkpt>
      <trkpt lat="46.03103" lon="3.71564">
        <ele>577</ele>
        <time>2020-01-02T10:29:08Z</time>
      </trkpt>
      <trkpt lat="46.03162" lon="3.71568">
        <ele>579</ele>
        <time>2020-01-02T10:30:27Z</time>
      </trkpt>
      <trkpt lat="46.03129" lon="3.71456">
        <ele>586</ele>
        <time>2020-01-02T10:32:20Z</time>
      </trkpt>
      <trkpt lat="46.03126" lon="3.71289">
        <ele>596</ele>
        <time>2020-01-02T10:34:55Z</time>
      </trkpt>
      <trkpt lat="46.03272" lon="3.71229">
        <ele>607</ele>
        <time>2020-01-02T10:38:17Z</time>
      </trkpt>
      <trkpt lat="46.034" lon="3.71233">
        <ele>615</ele>
        <time>2020-01-02T10:41:08Z</time>
      </trkpt>
      <trkpt lat="46.03439" lon="3.71239">
        <ele>616</ele>
        <time>2020-01-02T10:42:00Z</time>
      </trkpt>
      <trkpt lat="46.03481" lon="3.71287">
        <ele>615</ele>
        <time>2020-01-02T10:43:12Z</time>
      </trkpt>
      <trkpt lat="46.03532" lon="3.71334">
        <ele>613</ele>
        <time>2020-01-02T10:44:33Z</time>
      </trkpt>
      <trkpt lat="46.03579" lon="3.71334">
        <ele>616</ele>
        <time>2020-01-02T10:45:35Z</time>
      </trkpt>
      <trkpt lat="46.03663" lon="3.71403">
        <ele>610</ele>
        <time>2020-01-02T10:47:44Z</time>
      </trkpt>
      <trkpt lat="46.03737" lon="3.71574">
        <ele>610</ele>
        <time>2020-01-02T10:50:51Z</time>
      </trkpt>
      <trkpt lat="46.03764" lon="3.71656">
        <ele>608</ele>
        <time>2020-01-02T10:52:15Z</time>
      </trkpt>
      <trkpt lat="46.03812" lon="3.71729">
        <ele>603</ele>
        <time>2020-01-02T10:53:48Z</time>
      </trkpt>
      <trkpt lat="46.03844" lon="3.71806">
        <ele>599</ele>
        <time>2020-01-02T10:55:11Z</time>
      </trkpt>
      <trkpt lat="46.03877" lon="3.71862">
        <ele>596</ele>
        <time>2020-01-02T10:56:19Z</time>
      </trkpt>
      <trkpt lat="46.03913" lon="3.719">
        <ele>594</ele>
        <time>2020-01-02T10:57:19Z</time>
      </trkpt>
      <trkpt lat="46.03958" lon="3.71797">
        <ele>590</ele>
        <time>2020-01-02T10:59:12Z</time>
      </trkpt>
      <trkpt lat="46.04014" lon="3.71729">
        <ele>579</ele>
        <time>2020-01-02T11:00:50Z</time>
      </trkpt>
      <trkpt lat="46.04044" lon="3.71669">
        <ele>573</ele>
        <time>2020-01-02T11:01:58Z</time>
      </trkpt>
      <trkpt lat="46.04098" lon="3.716">
        <ele>568</ele>
        <time>2020-01-02T11:03:34Z</time>
      </trkpt>
      <trkpt lat="46.04148" lon="3.7154">
        <ele>564</ele>
        <time>2020-01-02T11:05:01Z</time>
      </trkpt>
      <trkpt lat="46.04187" lon="3.71454">
        <ele>571</ele>
        <time>2020-01-02T11:06:36Z</time>
      </trkpt>
      <trkpt lat="46.04223" lon="3.7139">
        <ele>576</ele>
        <time>2020-01-02T11:07:53Z</time>
      </trkpt>
      <trkpt lat="46.0427" lon="3.71274">
        <ele>581</ele>
        <time>2020-01-02T11:09:57Z</time>
      </trkpt>
      <trkpt lat="46.04342" lon="3.71261">
        <ele>578</ele>
        <time>2020-01-02T11:11:34Z</time>
      </trkpt>
      <trkpt lat="46.04437" lon="3.71205">
        <ele>568</ele>
        <time>2020-01-02T11:13:51Z</time>
      </trkpt>
      <trkpt lat="46.04518" lon="3.71197">
        <ele>557</ele>
        <time>2020-01-02T11:15:39Z</time>
      </trkpt>
      <trkpt lat="46.04586" lon="3.71209">
        <ele>548</ele>
        <time>2020-01-02T11:17:11Z</time>
      </trkpt>
      <trkpt lat="46.04753" lon="3.71072">
        <ele>533</ele>
        <time>2020-01-02T11:21:27Z</time>
      </trkpt>
      <trkpt lat="46.0481" lon="3.71051">
        <ele>527</ele>
        <time>2020-01-02T11:22:46Z</time>
      </trkpt>
      <trkpt lat="46.04881" lon="3.70978">
        <ele>523</ele>
        <time>2020-01-02T11:24:42Z</time>
      </trkpt>
    </trkseg>
  </trk>
</gpx>